sensor_id;sensor_type;location;lat;lon;timestamp;temperature;humidity
70246;SHT30;57637;49.272;8.590;2023-04-01T00:01:03;10.05;81.63
70246;SHT30;57637;49.272;8.590;2023-04-01T00:03:30;10.01;81.52
70246;SHT30;57637;49.272;8.590;2023-04-01T00:05:56;9.98;81.62
70246;SHT30;57637;49.272;8.590;2023-04-01T00:08:23;9.93;81.84
70246;SHT30;57637;49.272;8.590;2023-04-01T00:10:49;9.92;82.04
70246;SHT30;57637;49.272;8.590;2023-04-01T00:13:14;9.88;82.00
70246;SHT30;57637;49.272;8.590;2023-04-01T00:15:41;9.85;82.15
70246;SHT30;57637;49.272;8.590;2023-04-01T00:18:07;9.85;82.13
70246;SHT30;57637;49.272;8.590;2023-04-01T00:20:33;9.82;82.25
70246;SHT30;57637;49.272;8.590;2023-04-01T00:22:59;9.78;82.36
70246;SHT30;57637;49.272;8.590;2023-04-01T00:25:25;9.78;82.41
70246;SHT30;57637;49.272;8.590;2023-04-01T00:27:51;9.78;82.44
70246;SHT30;57637;49.272;8.590;2023-04-01T00:30:16;9.78;82.46
70246;SHT30;57637;49.272;8.590;2023-04-01T00:32:42;9.77;82.35
70246;SHT30;57637;49.272;8.590;2023-04-01T00:35:08;9.79;82.50
70246;SHT30;57637;49.272;8.590;2023-04-01T00:37:36;9.79;82.62
70246;SHT30;57637;49.272;8.590;2023-04-01T00:40:05;9.81;82.42
70246;SHT30;57637;49.272;8.590;2023-04-01T00:42:32;9.82;82.34
70246;SHT30;57637;49.272;8.590;2023-04-01T00:44:57;9.85;82.19
70246;SHT30;57637;49.272;8.590;2023-04-01T00:47:23;9.88;81.99
70246;SHT30;57637;49.272;8.590;2023-04-01T00:49:52;9.89;81.94
70246;SHT30;57637;49.272;8.590;2023-04-01T00:52:20;9.88;81.99
70246;SHT30;57637;49.272;8.590;2023-04-01T00:54:47;9.88;82.09
70246;SHT30;57637;49.272;8.590;2023-04-01T00:59:47;9.88;82.03
70246;SHT30;57637;49.272;8.590;2023-04-01T01:02:15;9.92;82.08
70246;SHT30;57637;49.272;8.590;2023-04-01T01:04:41;9.89;82.17
70246;SHT30;57637;49.272;8.590;2023-04-01T01:12:34;9.88;82.57
70246;SHT30;57637;49.272;8.590;2023-04-01T01:17:50;9.82;82.46
70246;SHT30;57637;49.272;8.590;2023-04-01T01:20:33;9.78;82.48
70246;SHT30;57637;49.272;8.590;2023-04-01T01:31:34;9.74;81.88
70246;SHT30;57637;49.272;8.590;2023-04-01T01:37:10;9.77;81.83
70246;SHT30;57637;49.272;8.590;2023-04-01T01:39:40;9.79;81.49
70246;SHT30;57637;49.272;8.590;2023-04-01T01:42:08;9.82;81.26
70246;SHT30;57637;49.272;8.590;2023-04-01T01:44:36;9.81;81.34
70246;SHT30;57637;49.272;8.590;2023-04-01T01:47:03;9.86;81.46
70246;SHT30;57637;49.272;8.590;2023-04-01T01:49:30;9.82;81.42
70246;SHT30;57637;49.272;8.590;2023-04-01T01:51:59;9.82;81.48
70246;SHT30;57637;49.272;8.590;2023-04-01T01:54:24;9.82;81.40
70246;SHT30;57637;49.272;8.590;2023-04-01T01:56:51;9.82;81.27
70246;SHT30;57637;49.272;8.590;2023-04-01T01:59:22;9.86;81.06
70246;SHT30;57637;49.272;8.590;2023-04-01T02:01:49;9.83;80.79
70246;SHT30;57637;49.272;8.590;2023-04-01T02:04:17;9.88;80.72
70246;SHT30;57637;49.272;8.590;2023-04-01T02:06:45;9.91;80.02
70246;SHT30;57637;49.272;8.590;2023-04-01T02:09:18;9.96;79.58
70246;SHT30;57637;49.272;8.590;2023-04-01T02:11:51;10.05;79.37
70246;SHT30;57637;49.272;8.590;2023-04-01T02:14:25;10.08;79.05
70246;SHT30;57637;49.272;8.590;2023-04-01T02:16:55;10.10;78.90
70246;SHT30;57637;49.272;8.590;2023-04-01T02:19:36;10.09;79.03
70246;SHT30;57637;49.272;8.590;2023-04-01T02:22:06;10.06;79.00
70246;SHT30;57637;49.272;8.590;2023-04-01T02:24:36;10.09;78.82
70246;SHT30;57637;49.272;8.590;2023-04-01T02:27:04;10.13;78.85
70246;SHT30;57637;49.272;8.590;2023-04-01T02:29:30;10.16;78.56
70246;SHT30;57637;49.272;8.590;2023-04-01T02:31:56;10.16;78.50
70246;SHT30;57637;49.272;8.590;2023-04-01T02:34:23;10.16;78.62
70246;SHT30;57637;49.272;8.590;2023-04-01T02:36:50;10.14;78.70
70246;SHT30;57637;49.272;8.590;2023-04-01T02:39:17;10.17;78.85
70246;SHT30;57637;49.272;8.590;2023-04-01T02:41:44;10.17;79.14
70246;SHT30;57637;49.272;8.590;2023-04-01T02:44:11;10.16;79.44
70246;SHT30;57637;49.272;8.590;2023-04-01T02:46:38;10.13;79.97
70246;SHT30;57637;49.272;8.590;2023-04-01T02:49:04;10.10;80.44
70246;SHT30;57637;49.272;8.590;2023-04-01T02:51:30;10.12;80.77
70246;SHT30;57637;49.272;8.590;2023-04-01T02:53:55;10.10;80.74
70246;SHT30;57637;49.272;8.590;2023-04-01T02:56:21;10.09;80.71
70246;SHT30;57637;49.272;8.590;2023-04-01T02:58:46;10.10;80.83
70246;SHT30;57637;49.272;8.590;2023-04-01T03:01:12;10.09;81.00
70246;SHT30;57637;49.272;8.590;2023-04-01T03:03:40;10.08;80.86
70246;SHT30;57637;49.272;8.590;2023-04-01T03:06:10;10.05;80.90
70246;SHT30;57637;49.272;8.590;2023-04-01T03:08:37;10.05;80.88
70246;SHT30;57637;49.272;8.590;2023-04-01T03:11:03;10.03;81.06
70246;SHT30;57637;49.272;8.590;2023-04-01T03:13:28;10.02;80.89
70246;SHT30;57637;49.272;8.590;2023-04-01T03:15:54;10.01;80.89
70246;SHT30;57637;49.272;8.590;2023-04-01T03:18:19;9.96;80.90
70246;SHT30;57637;49.272;8.590;2023-04-01T03:20:45;9.93;81.02
70246;SHT30;57637;49.272;8.590;2023-04-01T03:23:10;9.89;80.95
70246;SHT30;57637;49.272;8.590;2023-04-01T03:25:36;9.85;80.83
70246;SHT30;57637;49.272;8.590;2023-04-01T03:28:01;9.83;80.69
70246;SHT30;57637;49.272;8.590;2023-04-01T03:30:27;9.81;80.75
70246;SHT30;57637;49.272;8.590;2023-04-01T03:32:54;9.78;80.97
70246;SHT30;57637;49.272;8.590;2023-04-01T03:35:20;9.74;80.94
70246;SHT30;57637;49.272;8.590;2023-04-01T03:37:46;9.71;80.92
70246;SHT30;57637;49.272;8.590;2023-04-01T03:40:11;9.71;80.99
70246;SHT30;57637;49.272;8.590;2023-04-01T03:42:37;9.71;81.07
70246;SHT30;57637;49.272;8.590;2023-04-01T03:45:02;9.68;81.16
70246;SHT30;57637;49.272;8.590;2023-04-01T03:47:28;9.69;81.24
70246;SHT30;57637;49.272;8.590;2023-04-01T03:49:54;9.68;81.20
70246;SHT30;57637;49.272;8.590;2023-04-01T03:52:20;9.69;81.36
70246;SHT30;57637;49.272;8.590;2023-04-01T03:54:45;9.68;81.48
70246;SHT30;57637;49.272;8.590;2023-04-01T03:57:11;9.63;81.58
70246;SHT30;57637;49.272;8.590;2023-04-01T03:59:36;9.61;81.89
70246;SHT30;57637;49.272;8.590;2023-04-01T04:02:02;9.61;82.02
70246;SHT30;57637;49.272;8.590;2023-04-01T04:04:27;9.57;82.15
70246;SHT30;57637;49.272;8.590;2023-04-01T04:06:53;9.54;82.52
70246;SHT30;57637;49.272;8.590;2023-04-01T04:09:19;9.45;82.73
70246;SHT30;57637;49.272;8.590;2023-04-01T04:11:44;9.38;83.25
70246;SHT30;57637;49.272;8.590;2023-04-01T04:14:10;9.34;83.58
70246;SHT30;57637;49.272;8.590;2023-04-01T04:16:35;9.30;83.80
70246;SHT30;57637;49.272;8.590;2023-04-01T04:19:02;9.23;84.24
70246;SHT30;57637;49.272;8.590;2023-04-01T04:21:28;9.16;84.46
70246;SHT30;57637;49.272;8.590;2023-04-01T04:23:53;9.13;84.68
70246;SHT30;57637;49.272;8.590;2023-04-01T04:26:18;9.08;84.83
70246;SHT30;57637;49.272;8.590;2023-04-01T04:28:44;9.07;84.88
70246;SHT30;57637;49.272;8.590;2023-04-01T04:31:10;9.04;85.02
70246;SHT30;57637;49.272;8.590;2023-04-01T04:33:35;9.06;85.12
70246;SHT30;57637;49.272;8.590;2023-04-01T04:36:01;9.01;85.29
70246;SHT30;57637;49.272;8.590;2023-04-01T04:38:28;9.03;85.41
70246;SHT30;57637;49.272;8.590;2023-04-01T04:40:54;9.08;85.50
70246;SHT30;57637;49.272;8.590;2023-04-01T04:43:20;9.14;85.36
70246;SHT30;57637;49.272;8.590;2023-04-01T04:45:45;9.24;85.05
70246;SHT30;57637;49.272;8.590;2023-04-01T04:48:12;9.24;84.45
70246;SHT30;57637;49.272;8.590;2023-04-01T04:50:43;9.30;84.51
70246;SHT30;57637;49.272;8.590;2023-04-01T04:53:12;9.34;84.11
70246;SHT30;57637;49.272;8.590;2023-04-01T04:55:42;9.38;83.93
70246;SHT30;57637;49.272;8.590;2023-04-01T04:58:14;9.42;83.48
70246;SHT30;57637;49.272;8.590;2023-04-01T05:00:40;9.51;83.11
70246;SHT30;57637;49.272;8.590;2023-04-01T05:03:06;9.54;82.63
70246;SHT30;57637;49.272;8.590;2023-04-01T05:05:31;9.58;82.34
70246;SHT30;57637;49.272;8.590;2023-04-01T05:07:56;9.65;82.09
70246;SHT30;57637;49.272;8.590;2023-04-01T05:10:22;9.71;81.73
70246;SHT30;57637;49.272;8.590;2023-04-01T05:12:47;9.75;81.46
70246;SHT30;57637;49.272;8.590;2023-04-01T05:15:12;9.79;81.39
70246;SHT30;57637;49.272;8.590;2023-04-01T05:17:38;9.85;81.13
70246;SHT30;57637;49.272;8.590;2023-04-01T05:20:04;9.86;81.03
70246;SHT30;57637;49.272;8.590;2023-04-01T05:22:30;9.88;81.07
70246;SHT30;57637;49.272;8.590;2023-04-01T05:24:56;9.88;80.98
70246;SHT30;57637;49.272;8.590;2023-04-01T05:27:21;9.93;80.89
70246;SHT30;57637;49.272;8.590;2023-04-01T05:29:47;9.93;80.80
70246;SHT30;57637;49.272;8.590;2023-04-01T05:32:12;9.96;80.82
70246;SHT30;57637;49.272;8.590;2023-04-01T05:34:37;9.98;80.49
70246;SHT30;57637;49.272;8.590;2023-04-01T05:37:03;9.99;80.50
70246;SHT30;57637;49.272;8.590;2023-04-01T05:39:28;10.03;80.37
70246;SHT30;57637;49.272;8.590;2023-04-01T05:41:54;10.08;80.25
70246;SHT30;57637;49.272;8.590;2023-04-01T05:44:19;10.09;80.21
70246;SHT30;57637;49.272;8.590;2023-04-01T05:46:44;10.08;80.07
70246;SHT30;57637;49.272;8.590;2023-04-01T05:49:10;10.08;79.92
70246;SHT30;57637;49.272;8.590;2023-04-01T05:51:35;10.12;79.88
70246;SHT30;57637;49.272;8.590;2023-04-01T05:54:01;10.16;80.24
70246;SHT30;57637;49.272;8.590;2023-04-01T05:56:26;10.17;79.82
70246;SHT30;57637;49.272;8.590;2023-04-01T05:58:52;10.14;79.89
70246;SHT30;57637;49.272;8.590;2023-04-01T06:01:19;10.23;80.22
70246;SHT30;57637;49.272;8.590;2023-04-01T06:03:44;10.23;80.07
70246;SHT30;57637;49.272;8.590;2023-04-01T06:06:14;10.23;80.23
70246;SHT30;57637;49.272;8.590;2023-04-01T06:08:41;10.20;80.25
70246;SHT30;57637;49.272;8.590;2023-04-01T06:48:59;10.26;83.46
70246;SHT30;57637;49.272;8.590;2023-04-01T06:51:50;10.23;83.21
70246;SHT30;57637;49.272;8.590;2023-04-01T06:54:38;10.23;83.30
70246;SHT30;57637;49.272;8.590;2023-04-01T07:00:04;10.22;82.86
70246;SHT30;57637;49.272;8.590;2023-04-01T07:02:41;10.14;83.26
70246;SHT30;57637;49.272;8.590;2023-04-01T07:05:13;10.16;83.54
70246;SHT30;57637;49.272;8.590;2023-04-01T07:07:43;10.10;83.31
70246;SHT30;57637;49.272;8.590;2023-04-01T07:10:19;10.13;83.55
70246;SHT30;57637;49.272;8.590;2023-04-01T07:12:58;10.12;83.29
70246;SHT30;57637;49.272;8.590;2023-04-01T07:15:35;10.16;83.13
70246;SHT30;57637;49.272;8.590;2023-04-01T07:18:12;10.20;83.34
70246;SHT30;57637;49.272;8.590;2023-04-01T07:20:48;10.24;83.12
70246;SHT30;57637;49.272;8.590;2023-04-01T07:23:17;10.23;83.23
70246;SHT30;57637;49.272;8.590;2023-04-01T07:26:05;10.24;82.91
70246;SHT30;57637;49.272;8.590;2023-04-01T07:28:39;10.32;82.87
70246;SHT30;57637;49.272;8.590;2023-04-01T07:36:39;10.34;82.56
70246;SHT30;57637;49.272;8.590;2023-04-01T07:47:21;10.77;81.67
70246;SHT30;57637;49.272;8.590;2023-04-01T07:55:07;10.81;82.55
70246;SHT30;57637;49.272;8.590;2023-04-01T07:57:47;10.85;82.60
70246;SHT30;57637;49.272;8.590;2023-04-01T08:00:20;11.03;82.89
70246;SHT30;57637;49.272;8.590;2023-04-01T08:10:52;11.39;81.99
70246;SHT30;57637;49.272;8.590;2023-04-01T08:13:45;11.55;81.63
70246;SHT30;57637;49.272;8.590;2023-04-01T08:21:42;11.85;80.70
70246;SHT30;57637;49.272;8.590;2023-04-01T08:27:06;11.85;79.93
70246;SHT30;57637;49.272;8.590;2023-04-01T08:29:42;11.94;79.98
70246;SHT30;57637;49.272;8.590;2023-04-01T08:32:18;12.06;79.55
70246;SHT30;57637;49.272;8.590;2023-04-01T08:34:51;12.27;79.07
70246;SHT30;57637;49.272;8.590;2023-04-01T08:37:31;12.34;78.53
70246;SHT30;57637;49.272;8.590;2023-04-01T08:46:05;11.66;79.98
70246;SHT30;57637;49.272;8.590;2023-04-01T09:05:38;11.90;80.41
70246;SHT30;57637;49.272;8.590;2023-04-01T09:08:36;11.79;79.93
70246;SHT30;57637;49.272;8.590;2023-04-01T09:22:09;11.69;79.79
70246;SHT30;57637;49.272;8.590;2023-04-01T09:27:14;11.83;79.61
70246;SHT30;57637;49.272;8.590;2023-04-01T09:35:47;12.04;79.29
70246;SHT30;57637;49.272;8.590;2023-04-01T09:57:20;12.06;80.01
70246;SHT30;57637;49.272;8.590;2023-04-01T10:00:23;12.06;79.37
70246;SHT30;57637;49.272;8.590;2023-04-01T10:14:34;12.07;79.87
70246;SHT30;57637;49.272;8.590;2023-04-01T10:22:40;12.23;79.73
70246;SHT30;57637;49.272;8.590;2023-04-01T10:26:07;12.01;79.59
70246;SHT30;57637;49.272;8.590;2023-04-01T10:39:37;12.09;80.27
70246;SHT30;57637;49.272;8.590;2023-04-01T10:42:07;12.27;79.89
70246;SHT30;57637;49.272;8.590;2023-04-01T10:44:52;12.38;79.54
70246;SHT30;57637;49.272;8.590;2023-04-01T11:06:58;12.21;79.82
70246;SHT30;57637;49.272;8.590;2023-04-01T11:26:08;12.21;80.10
70246;SHT30;57637;49.272;8.590;2023-04-01T11:28:50;12.34;80.09
70246;SHT30;57637;49.272;8.590;2023-04-01T11:48:07;12.84;79.25
70246;SHT30;57637;49.272;8.590;2023-04-01T11:59:57;12.50;79.42
70246;SHT30;57637;49.272;8.590;2023-04-01T12:02:13;12.37;79.79
70246;SHT30;57637;49.272;8.590;2023-04-01T12:10:48;13.13;78.44
70246;SHT30;57637;49.272;8.590;2023-04-01T12:16:34;13.08;78.39
70246;SHT30;57637;49.272;8.590;2023-04-01T12:19:10;13.30;78.10
70246;SHT30;57637;49.272;8.590;2023-04-01T12:21:52;13.29;77.48
70246;SHT30;57637;49.272;8.590;2023-04-01T12:24:41;13.22;77.85
70246;SHT30;57637;49.272;8.590;2023-04-01T12:30:28;13.62;77.30
70246;SHT30;57637;49.272;8.590;2023-04-01T12:50:34;13.30;77.87
70246;SHT30;57637;49.272;8.590;2023-04-01T13:01:30;13.57;76.62
70246;SHT30;57637;49.272;8.590;2023-04-01T13:07:09;13.66;75.81
70246;SHT30;57637;49.272;8.590;2023-04-01T13:13:18;13.71;75.89
70246;SHT30;57637;49.272;8.590;2023-04-01T13:18:52;13.67;75.68
70246;SHT30;57637;49.272;8.590;2023-04-01T13:21:30;13.71;75.91
70246;SHT30;57637;49.272;8.590;2023-04-01T13:26:33;13.77;74.91
70246;SHT30;57637;49.272;8.590;2023-04-01T13:29:04;13.84;75.93
70246;SHT30;57637;49.272;8.590;2023-04-01T13:31:43;14.15;75.21
70246;SHT30;57637;49.272;8.590;2023-04-01T13:34:35;14.13;73.73
70246;SHT30;57637;49.272;8.590;2023-04-01T13:39:51;13.74;74.72
70246;SHT30;57637;49.272;8.590;2023-04-01T14:01:39;13.63;74.36
70246;SHT30;57637;49.272;8.590;2023-04-01T14:10:07;13.44;75.25
70246;SHT30;57637;49.272;8.590;2023-04-01T14:12:51;13.35;75.06
70246;SHT30;57637;49.272;8.590;2023-04-01T14:20:49;12.85;76.14
70246;SHT30;57637;49.272;8.590;2023-04-01T14:29:21;12.88;75.87
70246;SHT30;57637;49.272;8.590;2023-04-01T14:37:54;12.68;76.28
70246;SHT30;57637;49.272;8.590;2023-04-01T14:51:46;12.40;77.46
70246;SHT30;57637;49.272;8.590;2023-04-01T14:54:14;12.33;77.61
70246;SHT30;57637;49.272;8.590;2023-04-01T14:59:49;12.27;78.05
70246;SHT30;57637;49.272;8.590;2023-04-01T15:05:27;12.04;79.18
70246;SHT30;57637;49.272;8.590;2023-04-01T15:13:55;12.00;80.55
70246;SHT30;57637;49.272;8.590;2023-04-01T15:22:47;12.04;80.22
70246;SHT30;57637;49.272;8.590;2023-04-01T15:25:27;12.12;80.20
70246;SHT30;57637;49.272;8.590;2023-04-01T15:36:10;12.23;80.31
70246;SHT30;57637;49.272;8.590;2023-04-01T15:53:00;12.12;80.61
70246;SHT30;57637;49.272;8.590;2023-04-01T16:01:31;12.16;80.61
70246;SHT30;57637;49.272;8.590;2023-04-01T16:09:43;12.17;80.59
70246;SHT30;57637;49.272;8.590;2023-04-01T16:15:29;12.07;80.55
70246;SHT30;57637;49.272;8.590;2023-04-01T16:21:01;11.99;80.97
70246;SHT30;57637;49.272;8.590;2023-04-01T16:26:26;11.87;81.45
70246;SHT30;57637;49.272;8.590;2023-04-01T16:31:48;11.79;82.14
70246;SHT30;57637;49.272;8.590;2023-04-01T16:37:10;11.73;82.34
70246;SHT30;57637;49.272;8.590;2023-04-01T16:45:24;11.65;80.92
70246;SHT30;57637;49.272;8.590;2023-04-01T16:48:00;11.65;80.88
70246;SHT30;57637;49.272;8.590;2023-04-01T16:50:44;11.63;80.61
70246;SHT30;57637;49.272;8.590;2023-04-01T16:53:25;11.61;80.30
70246;SHT30;57637;49.272;8.590;2023-04-01T16:58:34;11.56;78.92
70246;SHT30;57637;49.272;8.590;2023-04-01T17:01:12;11.51;78.87
70246;SHT30;57637;49.272;8.590;2023-04-01T17:03:45;11.54;78.35
70246;SHT30;57637;49.272;8.590;2023-04-01T17:11:24;11.46;77.96
70246;SHT30;57637;49.272;8.590;2023-04-01T17:13:57;11.48;77.88
70246;SHT30;57637;49.272;8.590;2023-04-01T17:23:02;11.39;77.74
70246;SHT30;57637;49.272;8.590;2023-04-01T17:55:50;10.93;81.71
70246;SHT30;57637;49.272;8.590;2023-04-01T18:57:27;10.33;81.71
70246;SHT30;57637;49.272;8.590;2023-04-01T19:00:18;10.28;81.68
70246;SHT30;57637;49.272;8.590;2023-04-01T19:02:51;10.26;82.08
70246;SHT30;57637;49.272;8.590;2023-04-01T19:05:29;10.30;82.28
70246;SHT30;57637;49.272;8.590;2023-04-01T19:10:52;10.30;82.12
70246;SHT30;57637;49.272;8.590;2023-04-01T19:19:19;10.24;81.76
70246;SHT30;57637;49.272;8.590;2023-04-01T19:21:58;10.22;81.48
70246;SHT30;57637;49.272;8.590;2023-04-01T19:27:27;10.26;81.50
70246;SHT30;57637;49.272;8.590;2023-04-01T19:35:30;10.29;81.48
70246;SHT30;57637;49.272;8.590;2023-04-01T19:38:31;10.30;81.58
70246;SHT30;57637;49.272;8.590;2023-04-01T19:41:22;10.28;81.84
70246;SHT30;57637;49.272;8.590;2023-04-01T20:00:34;10.13;83.32
70246;SHT30;57637;49.272;8.590;2023-04-01T20:11:06;10.10;83.85
70246;SHT30;57637;49.272;8.590;2023-04-01T20:16:17;10.10;83.69
70246;SHT30;57637;49.272;8.590;2023-04-01T20:18:55;10.12;84.06
70246;SHT30;57637;49.272;8.590;2023-04-01T20:21:31;10.09;84.21
70246;SHT30;57637;49.272;8.590;2023-04-01T20:24:04;10.08;84.26
70246;SHT30;57637;49.272;8.590;2023-04-01T20:26:44;10.08;84.42
70246;SHT30;57637;49.272;8.590;2023-04-01T20:37:40;10.03;85.71
70246;SHT30;57637;49.272;8.590;2023-04-01T20:43:28;9.92;86.26
70246;SHT30;57637;49.272;8.590;2023-04-01T20:51:24;9.82;86.74
70246;SHT30;57637;49.272;8.590;2023-04-01T20:54:40;9.75;86.79
70246;SHT30;57637;49.272;8.590;2023-04-01T20:57:11;9.77;86.71
70246;SHT30;57637;49.272;8.590;2023-04-01T20:59:48;9.77;86.68
70246;SHT30;57637;49.272;8.590;2023-04-01T21:05:40;9.74;86.78
70246;SHT30;57637;49.272;8.590;2023-04-01T21:29:38;9.59;86.32
70246;SHT30;57637;49.272;8.590;2023-04-01T21:38:46;9.54;86.24
70246;SHT30;57637;49.272;8.590;2023-04-01T21:41:24;9.50;86.18
70246;SHT30;57637;49.272;8.590;2023-04-01T21:44:01;9.50;86.10
70246;SHT30;57637;49.272;8.590;2023-04-01T21:49:59;9.51;86.13
70246;SHT30;57637;49.272;8.590;2023-04-01T22:03:53;9.52;86.27
70246;SHT30;57637;49.272;8.590;2023-04-01T22:06:34;9.50;86.38
70246;SHT30;57637;49.272;8.590;2023-04-01T22:09:38;9.48;86.40
70246;SHT30;57637;49.272;8.590;2023-04-01T22:12:13;9.48;86.41
70246;SHT30;57637;49.272;8.590;2023-04-01T22:17:58;9.48;86.45
70246;SHT30;57637;49.272;8.590;2023-04-01T22:32:09;9.51;86.57
70246;SHT30;57637;49.272;8.590;2023-04-01T22:45:57;9.42;86.57
70246;SHT30;57637;49.272;8.590;2023-04-01T22:48:46;9.42;86.50
70246;SHT30;57637;49.272;8.590;2023-04-01T22:51:21;9.42;86.41
70246;SHT30;57637;49.272;8.590;2023-04-01T22:53:57;9.44;86.34
70246;SHT30;57637;49.272;8.590;2023-04-01T22:56:36;9.41;86.45
70246;SHT30;57637;49.272;8.590;2023-04-01T22:59:17;9.41;86.37
70246;SHT30;57637;49.272;8.590;2023-04-01T23:02:10;9.41;86.38
70246;SHT30;57637;49.272;8.590;2023-04-01T23:04:40;9.40;86.34
70246;SHT30;57637;49.272;8.590;2023-04-01T23:10:02;9.40;86.43
70246;SHT30;57637;49.272;8.590;2023-04-01T23:12:37;9.38;86.53
70246;SHT30;57637;49.272;8.590;2023-04-01T23:15:03;9.37;86.51
70246;SHT30;57637;49.272;8.590;2023-04-01T23:17:43;9.35;86.48
70246;SHT30;57637;49.272;8.590;2023-04-01T23:28:43;9.30;86.96
70246;SHT30;57637;49.272;8.590;2023-04-01T23:34:17;9.24;87.32
70246;SHT30;57637;49.272;8.590;2023-04-01T23:36:47;9.24;87.38
70246;SHT30;57637;49.272;8.590;2023-04-01T23:39:22;9.21;87.45
70246;SHT30;57637;49.272;8.590;2023-04-01T23:41:56;9.20;87.54
70246;SHT30;57637;49.272;8.590;2023-04-01T23:44:27;9.20;87.64
70246;SHT30;57637;49.272;8.590;2023-04-01T23:46:54;9.17;87.57
70246;SHT30;57637;49.272;8.590;2023-04-01T23:49:26;9.17;87.68
70246;SHT30;57637;49.272;8.590;2023-04-01T23:51:59;9.14;87.66
70246;SHT30;57637;49.272;8.590;2023-04-01T23:54:38;9.13;87.70
70246;SHT30;57637;49.272;8.590;2023-04-01T23:57:12;9.13;87.62
70246;SHT30;57637;49.272;8.590;2023-04-01T23:59:40;9.13;87.61
